createdAt,value
2023-01-09T00:01:10.747Z,2.22
2023-01-09T00:03:38.241Z,2.15
2023-01-09T00:06:06.710Z,2.70
2023-01-09T00:08:33.995Z,2.55
2023-01-09T00:11:01.356Z,2.10
2023-01-09T00:13:28.687Z,2.30
2023-01-09T00:15:56.156Z,2.25
2023-01-09T00:18:23.410Z,1.65
2023-01-09T00:20:50.697Z,2.47
2023-01-09T00:23:18.289Z,2.22
2023-01-09T00:25:45.591Z,2.50
2023-01-09T00:28:12.892Z,2.08
2023-01-09T00:30:40.609Z,2.40
2023-01-09T00:33:07.992Z,2.20
2023-01-09T00:35:35.363Z,2.47
2023-01-09T00:38:03.611Z,2.75
2023-01-09T00:40:31.081Z,2.33
2023-01-09T00:42:58.642Z,2.10
2023-01-09T00:45:29.287Z,2.72
2023-01-09T00:48:03.804Z,2.13
2023-01-09T00:50:33.731Z,2.35
2023-01-09T00:53:06.543Z,2.58
2023-01-09T00:55:37.686Z,2.38
2023-01-09T00:58:05.992Z,2.03
2023-01-09T01:00:33.558Z,2.42
2023-01-09T01:03:00.912Z,3.10
2023-01-09T01:05:46.659Z,2.75
2023-01-09T01:08:16.266Z,2.80
2023-01-09T01:10:44.791Z,2.03
2023-01-09T01:13:12.763Z,2.15
2023-01-09T01:15:42.232Z,1.90
2023-01-09T01:18:11.524Z,1.58
2023-01-09T01:20:45.521Z,1.55
2023-01-09T01:23:13.088Z,1.30
2023-01-09T01:25:41.993Z,1.52
2023-01-09T01:28:10.631Z,1.40
2023-01-09T01:30:41.104Z,0.93
2023-01-09T01:33:09.184Z,0.80
2023-01-09T01:35:36.756Z,0.90
2023-01-09T01:38:04.457Z,0.88
2023-01-09T01:40:31.769Z,0.82
2023-01-09T01:42:59.154Z,0.93
2023-01-09T01:45:28.780Z,0.73
2023-01-09T01:48:08.416Z,0.88
2023-01-09T01:50:35.711Z,0.70
2023-01-09T01:53:21.640Z,0.90
2023-01-09T01:55:51.818Z,0.77
2023-01-09T01:58:20.342Z,0.60
2023-01-09T02:00:48.266Z,0.60
2023-01-09T02:03:18.867Z,0.50
2023-01-09T02:05:46.256Z,0.60
2023-01-09T02:08:13.678Z,0.80
2023-01-09T02:10:41.160Z,0.90
2023-01-09T02:13:09.460Z,1.00
2023-01-09T02:16:04.916Z,1.52
2023-01-09T02:18:54.044Z,1.15
2023-01-09T02:21:33.699Z,1.30
2023-01-09T02:24:28.995Z,1.65
2023-01-09T02:27:23.419Z,1.80
2023-01-09T02:30:09.185Z,1.52
2023-01-09T02:32:57.816Z,1.80
2023-01-09T02:35:37.456Z,1.70
2023-01-09T02:38:40.122Z,1.92
2023-01-09T02:41:14.271Z,1.90
2023-01-09T02:43:41.874Z,2.15
2023-01-09T02:46:22.987Z,1.85
2023-01-09T02:48:52.727Z,2.00
2023-01-09T02:51:33.561Z,2.13
2023-01-09T02:54:21.011Z,2.05
2023-01-09T02:56:55.658Z,2.28
2023-01-09T02:59:30.049Z,2.70
2023-01-09T03:02:04.616Z,1.90
2023-01-09T03:04:56.829Z,2.05
2023-01-09T03:08:12.514Z,2.28
2023-01-09T03:10:59.463Z,1.98
2023-01-09T03:13:32.735Z,2.33
2023-01-09T03:16:06.450Z,2.00
2023-01-09T03:18:36.388Z,2.78
2023-01-09T03:21:06.296Z,2.22
2023-01-09T03:23:54.012Z,2.22
2023-01-09T03:26:21.590Z,2.40
2023-01-09T03:28:50.257Z,1.85
2023-01-09T03:31:18.341Z,2.88
2023-01-09T03:33:45.663Z,2.10
2023-01-09T03:36:14.166Z,1.85
2023-01-09T03:38:41.471Z,2.33
2023-01-09T03:41:08.845Z,2.33
2023-01-09T03:43:36.647Z,1.70
2023-01-09T03:46:04.319Z,2.65
2023-01-09T03:48:32.038Z,2.45
2023-01-09T03:50:59.473Z,2.58
2023-01-09T03:53:28.801Z,2.17
2023-01-09T03:55:57.533Z,2.20
2023-01-09T03:58:25.871Z,2.03
2023-01-09T04:00:59.930Z,2.53
2023-01-09T04:03:27.443Z,2.17
2023-01-09T04:05:55.139Z,1.90
2023-01-09T04:08:22.750Z,2.40
2023-01-09T04:10:50.993Z,2.17
2023-01-09T04:13:19.354Z,2.65
2023-01-09T04:15:46.826Z,2.63
2023-01-09T04:18:14.721Z,3.83
2023-01-09T04:20:42.272Z,2.58
2023-01-09T04:23:09.491Z,2.80
2023-01-09T04:25:36.756Z,3.13
2023-01-09T04:28:04.257Z,3.05
2023-01-09T04:30:31.770Z,2.78
2023-01-09T04:32:59.044Z,3.35
2023-01-09T04:35:26.335Z,3.60
2023-01-09T04:37:53.687Z,3.17
2023-01-09T04:40:21.257Z,3.70
2023-01-09T04:42:48.762Z,3.60
2023-01-09T04:45:17.193Z,3.60
2023-01-09T04:47:45.248Z,3.63
2023-01-09T04:50:13.254Z,4.40
2023-01-09T04:52:40.996Z,3.72
2023-01-09T04:55:09.157Z,4.00
2023-01-09T04:57:37.197Z,3.88
2023-01-09T05:00:09.778Z,4.78
2023-01-09T05:02:37.631Z,3.80
2023-01-09T05:05:07.762Z,4.50
2023-01-09T05:10:04.570Z,3.72
2023-01-09T05:12:32.041Z,4.28
2023-01-09T05:14:59.493Z,3.80
2023-01-09T05:17:26.820Z,4.57
2023-01-09T05:19:54.141Z,4.47
2023-01-09T05:22:21.867Z,4.63
2023-01-09T05:24:49.193Z,5.32
2023-01-09T05:27:16.624Z,4.80
2023-01-09T05:29:43.911Z,4.65
2023-01-09T05:32:11.184Z,4.40
2023-01-09T05:34:38.459Z,5.20
2023-01-09T05:37:05.825Z,5.20
2023-01-09T05:39:33.218Z,5.25
2023-01-09T05:42:00.533Z,4.85
2023-01-09T05:44:27.883Z,5.93
2023-01-09T05:46:55.227Z,5.53
2023-01-09T05:49:22.593Z,5.70
2023-01-09T05:51:49.839Z,6.28
2023-01-09T05:54:17.372Z,7.07
2023-01-09T05:56:44.694Z,6.20
2023-01-09T05:59:12.120Z,6.55
2023-01-09T06:01:39.462Z,7.38
2023-01-09T06:04:07.281Z,6.90
2023-01-09T06:06:34.615Z,8.25
2023-01-09T06:09:06.124Z,9.07
2023-01-09T06:11:35.956Z,9.65
2023-01-09T06:14:03.233Z,9.57
2023-01-09T06:16:30.611Z,10.68
2023-01-09T06:18:58.041Z,10.07
2023-01-09T06:21:25.411Z,9.82
2023-01-09T06:23:52.698Z,11.30
2023-01-09T06:26:20.184Z,10.38
2023-01-09T06:28:47.513Z,10.35
2023-01-09T06:31:15.005Z,11.50
2023-01-09T06:33:42.264Z,10.48
2023-01-09T06:36:09.711Z,12.20
2023-01-09T06:38:37.055Z,12.35
2023-01-09T06:41:04.608Z,12.30
2023-01-09T06:43:32.073Z,12.02
2023-01-09T06:45:59.454Z,12.82
2023-01-09T06:48:26.971Z,13.60
2023-01-09T06:50:55.000Z,12.65
2023-01-09T06:53:22.765Z,13.57
2023-01-09T06:55:50.342Z,13.90
2023-01-09T06:58:18.547Z,14.50
2023-01-09T07:00:46.184Z,14.35
2023-01-09T07:03:19.696Z,14.95
2023-01-09T07:05:47.582Z,13.95
2023-01-09T07:08:15.828Z,14.75
2023-01-09T07:10:44.310Z,15.07
2023-01-09T07:13:11.678Z,14.57
2023-01-09T07:15:39.228Z,14.25
2023-01-09T07:18:06.606Z,13.38
2023-01-09T07:20:33.866Z,13.52
2023-01-09T07:23:01.224Z,15.55
2023-01-09T07:25:28.559Z,13.25
2023-01-09T07:27:56.408Z,13.68
2023-01-09T07:30:23.785Z,13.32
2023-01-09T07:32:51.125Z,14.20
2023-01-09T07:35:18.459Z,13.32
2023-01-09T07:37:46.900Z,14.40
2023-01-09T07:40:14.243Z,11.85
2023-01-09T07:42:41.670Z,14.65
2023-01-09T07:45:09.333Z,12.43
2023-01-09T07:47:36.621Z,12.73
2023-01-09T07:50:04.114Z,13.25
2023-01-09T07:52:31.500Z,12.68
2023-01-09T07:54:58.853Z,12.48
2023-01-09T07:57:26.370Z,12.52
2023-01-09T07:59:53.740Z,12.75
2023-01-09T08:02:21.043Z,11.95
2023-01-09T08:04:48.692Z,11.48
2023-01-09T08:07:16.384Z,11.68
2023-01-09T08:09:43.677Z,12.25
2023-01-09T08:12:10.956Z,11.23
2023-01-09T08:14:38.298Z,11.20
2023-01-09T08:17:05.616Z,11.48
2023-01-09T08:19:33.002Z,11.05
2023-01-09T08:22:00.428Z,10.40
2023-01-09T08:24:27.700Z,10.82
2023-01-09T08:26:55.027Z,10.07
2023-01-09T08:29:22.331Z,10.98
2023-01-09T08:31:49.626Z,8.93
2023-01-09T08:34:16.940Z,8.90
2023-01-09T08:36:44.228Z,8.32
2023-01-09T08:39:11.549Z,8.70
2023-01-09T08:41:57.311Z,7.93
2023-01-09T08:44:43.161Z,8.30
2023-01-09T08:47:10.674Z,8.07
2023-01-09T08:49:39.290Z,8.80
2023-01-09T08:52:07.695Z,7.38
2023-01-09T08:54:38.969Z,6.72
2023-01-09T08:57:07.881Z,7.72
2023-01-09T08:59:35.234Z,7.57
2023-01-09T09:02:02.637Z,7.03
2023-01-09T09:04:30.089Z,6.15
2023-01-09T09:06:57.627Z,6.28
2023-01-09T09:09:25.837Z,7.00
2023-01-09T09:11:53.171Z,6.85
2023-01-09T09:14:39.188Z,7.20
2023-01-09T09:17:06.435Z,6.50
2023-01-09T09:19:33.812Z,6.53
2023-01-09T09:22:01.171Z,5.40
2023-01-09T09:24:28.707Z,6.00
2023-01-09T09:26:55.913Z,5.57
2023-01-09T09:29:23.095Z,5.95
2023-01-09T09:31:50.372Z,5.78
2023-01-09T09:34:20.156Z,5.05
2023-01-09T09:36:47.650Z,5.30
2023-01-09T09:39:14.994Z,5.32
2023-01-09T09:42:13.159Z,4.97
2023-01-09T09:44:55.609Z,4.68
2023-01-09T09:47:32.023Z,4.80
2023-01-09T09:50:05.414Z,4.22
2023-01-09T09:52:51.401Z,4.07
2023-01-09T09:55:24.039Z,4.13
2023-01-09T09:57:52.355Z,4.40
2023-01-09T10:00:23.421Z,4.47
2023-01-09T10:03:06.714Z,4.53
2023-01-09T10:05:45.625Z,3.38
2023-01-09T10:08:43.637Z,4.13
2023-01-09T10:11:22.235Z,3.78
2023-01-09T10:14:06.331Z,3.80
2023-01-09T10:16:44.883Z,3.80
2023-01-09T10:19:12.160Z,3.95
2023-01-09T10:21:42.243Z,3.75
2023-01-09T10:24:21.073Z,3.05
2023-01-09T10:26:52.123Z,3.88
2023-01-09T10:29:31.608Z,3.47
2023-01-09T10:32:22.090Z,4.03
2023-01-09T10:34:58.532Z,3.35
2023-01-09T10:37:37.371Z,3.75
2023-01-09T10:40:16.780Z,3.30
2023-01-09T10:42:49.206Z,3.78
2023-01-09T10:45:25.696Z,4.00
2023-01-09T10:48:04.944Z,3.85
2023-01-09T10:50:36.032Z,3.67
2023-01-09T10:53:16.630Z,3.63
2023-01-09T10:55:47.855Z,3.67
2023-01-09T10:58:18.860Z,3.50
2023-01-09T11:00:47.724Z,3.85
2023-01-09T11:03:20.666Z,3.55
2023-01-09T11:05:57.864Z,3.42
2023-01-09T11:08:42.839Z,3.95
2023-01-09T11:11:12.804Z,3.60
2023-01-09T11:13:45.458Z,2.95
2023-01-09T11:16:14.821Z,3.63
2023-01-09T11:18:52.594Z,3.35
2023-01-09T11:21:26.270Z,2.60
2023-01-09T11:23:54.563Z,2.72
2023-01-09T11:26:27.966Z,3.22
2023-01-09T11:29:11.249Z,3.50
2023-01-09T11:31:41.524Z,3.63
2023-01-09T11:34:26.929Z,3.05
2023-01-09T11:37:10.578Z,3.58
2023-01-09T11:39:42.675Z,3.60
2023-01-09T11:42:20.754Z,3.55
2023-01-09T11:44:49.046Z,3.00
2023-01-09T11:47:41.335Z,3.13
2023-01-09T11:50:24.799Z,3.53
2023-01-09T11:53:17.389Z,2.92
2023-01-09T11:55:47.338Z,3.55
2023-01-09T11:58:21.980Z,2.77
2023-01-09T12:00:55.010Z,2.97
2023-01-09T12:03:44.404Z,3.53
2023-01-09T12:06:14.791Z,3.88
2023-01-09T12:08:55.733Z,3.65
2023-01-09T12:11:29.260Z,3.75
2023-01-09T12:14:06.685Z,6.45
2023-01-09T12:16:54.363Z,5.13
2023-01-09T12:19:32.826Z,3.42
2023-01-09T12:22:13.017Z,3.47
2023-01-09T12:24:43.424Z,4.07
2023-01-09T12:27:38.887Z,3.40
2023-01-09T12:30:29.283Z,4.85
2023-01-09T12:33:19.391Z,3.50
2023-01-09T12:35:53.753Z,5.07
2023-01-09T12:38:40.899Z,6.75
2023-01-09T12:41:36.274Z,10.93
2023-01-09T12:44:35.956Z,8.13
2023-01-09T12:47:03.504Z,7.30
2023-01-09T12:49:36.023Z,9.65
2023-01-09T12:52:10.183Z,4.53
2023-01-09T12:54:47.737Z,3.83
2023-01-09T12:57:21.260Z,4.68
2023-01-09T12:59:53.482Z,4.57
2023-01-09T13:03:03.669Z,5.00
2023-01-09T13:05:40.308Z,4.80
2023-01-09T13:08:22.542Z,5.05
2023-01-09T13:10:53.693Z,3.97
2023-01-09T13:13:47.981Z,4.55
2023-01-09T13:16:25.318Z,4.90
2023-01-09T13:19:00.586Z,4.63
2023-01-09T13:21:28.273Z,4.13
2023-01-09T13:24:10.760Z,4.70
2023-01-09T13:26:49.280Z,4.70
2023-01-09T13:29:33.764Z,5.57
2023-01-09T13:32:37.898Z,5.00
2023-01-09T13:35:05.946Z,5.20
2023-01-09T13:37:36.946Z,5.70
2023-01-09T13:40:26.694Z,5.82
2023-01-09T13:43:05.450Z,5.78
2023-01-09T13:45:37.919Z,5.72
2023-01-09T13:48:12.028Z,6.10
2023-01-09T13:50:41.000Z,6.43
2023-01-09T13:53:18.658Z,5.97
2023-01-09T13:55:58.795Z,6.80
2023-01-09T14:01:36.127Z,7.20
2023-01-09T14:04:24.493Z,8.13
2023-01-09T14:07:16.704Z,6.93
2023-01-09T14:09:55.126Z,6.63
2023-01-09T14:12:23.693Z,6.53
2023-01-09T14:14:54.193Z,6.85
2023-01-09T14:17:31.747Z,7.10
2023-01-09T14:20:08.710Z,7.45
2023-01-09T14:22:45.666Z,6.95
2023-01-09T14:25:26.527Z,8.00
2023-01-09T14:27:54.073Z,7.30
2023-01-09T14:30:27.215Z,7.13
2023-01-09T14:33:19.429Z,8.68
2023-01-09T14:36:05.212Z,7.53
2023-01-09T14:38:37.932Z,7.45
2023-01-09T14:41:18.903Z,7.70
2023-01-09T14:46:20.945Z,8.13
2023-01-09T14:49:03.670Z,7.90
2023-01-09T14:51:35.782Z,7.82
2023-01-09T14:54:15.381Z,8.25
2023-01-09T14:56:47.720Z,7.47
2023-01-09T14:59:16.377Z,8.07
2023-01-09T15:01:47.808Z,7.78
2023-01-09T15:04:36.801Z,8.27
2023-01-09T15:07:06.155Z,7.75
2023-01-09T15:09:47.178Z,8.53
2023-01-09T15:12:22.863Z,8.40
2023-01-09T15:14:53.863Z,7.47
2023-01-09T15:17:25.752Z,8.30
2023-01-09T15:19:54.183Z,8.30
2023-01-09T15:22:39.841Z,9.00
2023-01-09T15:25:38.882Z,8.27
2023-01-09T15:28:25.635Z,8.67
2023-01-09T15:31:18.136Z,8.60
2023-01-09T15:33:47.516Z,8.30
2023-01-09T15:36:22.487Z,9.98
2023-01-09T15:38:51.358Z,9.20
2023-01-09T15:41:43.519Z,10.68
2023-01-09T15:44:30.848Z,9.13
2023-01-09T15:46:59.813Z,9.70
2023-01-09T15:49:27.414Z,10.15
2023-01-09T15:51:56.225Z,9.43
2023-01-09T15:54:32.813Z,10.07
2023-01-09T15:57:25.055Z,10.45
2023-01-09T16:00:16.492Z,10.68
2023-01-09T16:03:04.344Z,9.68
2023-01-09T16:05:33.441Z,9.48
2023-01-09T16:08:02.313Z,10.55
2023-01-09T16:10:38.731Z,9.65
2023-01-09T16:13:07.623Z,10.20
2023-01-09T16:15:35.399Z,10.32
2023-01-09T16:18:17.780Z,10.60
2023-01-09T16:20:45.731Z,10.75
2023-01-09T16:23:23.809Z,9.60
2023-01-09T16:26:23.721Z,10.02
2023-01-09T16:28:53.973Z,7.57
2023-01-09T16:31:31.114Z,7.28
2023-01-09T16:34:04.484Z,6.85
2023-01-09T16:36:35.007Z,5.90
2023-01-09T16:39:04.155Z,5.45
2023-01-09T16:41:49.904Z,5.70
2023-01-09T16:44:19.428Z,5.57
2023-01-09T16:46:47.072Z,6.40
2023-01-09T16:49:33.222Z,6.90
2023-01-09T16:52:03.151Z,6.20
2023-01-09T16:54:31.849Z,5.35
2023-01-09T16:57:01.264Z,4.78
2023-01-09T16:59:28.692Z,4.95
2023-01-09T17:01:56.211Z,4.97
2023-01-09T17:04:26.510Z,4.82
2023-01-09T17:06:54.097Z,4.45
2023-01-09T17:09:27.502Z,4.32
2023-01-09T17:11:55.012Z,4.43
2023-01-09T17:14:28.809Z,4.53
2023-01-09T17:16:58.207Z,4.85
2023-01-09T17:22:12.449Z,5.72
2023-01-09T17:24:58.428Z,4.60
2023-01-09T17:27:55.566Z,4.63
2023-01-09T17:30:25.657Z,4.00
2023-01-09T17:32:53.624Z,5.30
2023-01-09T17:35:20.952Z,5.00
2023-01-09T17:37:48.163Z,4.35
2023-01-09T17:40:21.120Z,4.88
2023-01-09T17:42:48.542Z,4.85
2023-01-09T17:45:16.006Z,4.38
2023-01-09T17:47:43.838Z,5.28
2023-01-09T17:50:19.644Z,5.97
2023-01-09T17:52:48.537Z,4.95
2023-01-09T17:55:15.963Z,6.97
2023-01-09T17:57:44.231Z,5.47
2023-01-09T18:00:38.870Z,5.28
2023-01-09T18:03:07.889Z,5.78
2023-01-09T18:05:37.864Z,6.50
2023-01-09T18:08:09.134Z,6.80
2023-01-09T18:10:37.786Z,5.53
2023-01-09T18:13:05.175Z,5.28
2023-01-09T18:15:32.792Z,6.53
2023-01-09T18:18:01.073Z,5.22
2023-01-09T18:20:28.453Z,6.72
2023-01-09T18:22:56.827Z,5.43
2023-01-09T18:25:24.166Z,5.55
2023-01-09T18:27:51.773Z,6.47
2023-01-09T18:30:19.284Z,5.35
2023-01-09T18:32:46.594Z,6.85
2023-01-09T18:35:14.211Z,5.18
2023-01-09T18:37:41.447Z,5.15
2023-01-09T18:40:09.431Z,5.57
2023-01-09T18:42:36.939Z,5.03
2023-01-09T18:45:04.591Z,5.22
2023-01-09T18:47:33.901Z,6.03
2023-01-09T18:50:01.198Z,5.88
2023-01-09T18:52:28.663Z,6.15
2023-01-09T18:54:56.149Z,4.88
2023-01-09T18:57:23.570Z,5.10
2023-01-09T18:59:50.928Z,5.20
2023-01-09T19:02:24.088Z,5.68
2023-01-09T19:04:52.252Z,5.22
2023-01-09T19:07:20.083Z,5.30
2023-01-09T19:09:47.765Z,5.65
2023-01-09T19:12:15.212Z,5.10
2023-01-09T19:14:42.857Z,4.82
2023-01-09T19:17:19.490Z,7.07
2023-01-09T19:19:50.163Z,6.15
2023-01-09T19:22:19.601Z,5.30
2023-01-09T19:24:50.336Z,5.85
2023-01-09T19:29:45.366Z,6.10
2023-01-09T19:32:14.131Z,6.05
2023-01-09T19:34:42.316Z,7.10
2023-01-09T19:37:13.779Z,5.57
2023-01-09T19:39:41.315Z,6.88
2023-01-09T19:42:08.707Z,6.47
2023-01-09T19:44:36.623Z,5.90
2023-01-09T19:47:12.987Z,6.28
2023-01-09T19:49:45.174Z,6.50
2023-01-09T19:52:15.545Z,5.60
2023-01-09T19:54:42.988Z,5.57
2023-01-09T19:57:10.332Z,5.97
2023-01-09T20:02:41.136Z,6.10
2023-01-09T20:05:09.723Z,5.72
2023-01-09T20:07:40.167Z,5.82
2023-01-09T20:10:07.955Z,6.50
2023-01-09T20:12:35.593Z,6.68
2023-01-09T20:15:03.134Z,5.75
2023-01-09T20:17:32.657Z,6.72
2023-01-09T20:20:09.248Z,6.13
2023-01-09T20:22:42.245Z,4.82
2023-01-09T20:25:18.381Z,6.05
2023-01-09T20:27:45.940Z,5.15
2023-01-09T20:30:13.745Z,5.55
2023-01-09T20:32:42.387Z,5.53
2023-01-09T20:35:09.943Z,4.90
2023-01-09T20:37:43.790Z,6.75
2023-01-09T20:40:11.595Z,5.00
2023-01-09T20:42:39.278Z,5.72
2023-01-09T20:45:07.219Z,5.10
2023-01-09T20:47:34.603Z,5.00
2023-01-09T20:50:02.030Z,5.70
2023-01-09T20:52:31.505Z,5.15
2023-01-09T20:54:59.100Z,5.15
2023-01-09T20:57:27.369Z,5.55
2023-01-09T20:59:55.190Z,5.30
2023-01-09T21:02:22.638Z,5.45
2023-01-09T21:04:49.969Z,5.45
2023-01-09T21:07:17.629Z,6.20
2023-01-09T21:09:46.287Z,4.97
2023-01-09T21:12:27.735Z,5.63
2023-01-09T21:14:55.273Z,6.05
2023-01-09T21:17:22.745Z,4.93
2023-01-09T21:19:52.801Z,4.75
2023-01-09T21:22:29.778Z,5.60
2023-01-09T21:25:03.286Z,4.00
2023-01-09T21:27:37.340Z,4.65
2023-01-09T21:30:07.127Z,5.28
2023-01-09T21:32:36.745Z,5.47
2023-01-09T21:35:06.217Z,5.35
2023-01-09T21:37:37.956Z,5.30
2023-01-09T21:40:08.940Z,4.50
2023-01-09T21:42:54.753Z,4.80
2023-01-09T21:45:44.482Z,4.55
2023-01-09T21:48:12.255Z,4.93
2023-01-09T21:50:41.541Z,4.60
2023-01-09T21:53:09.296Z,5.30
2023-01-09T21:55:36.953Z,4.35
2023-01-09T21:58:04.824Z,5.38
2023-01-09T22:00:32.877Z,4.40
2023-01-09T22:03:01.418Z,3.45
2023-01-09T22:05:28.856Z,4.00
2023-01-09T22:07:57.470Z,3.25
2023-01-09T22:10:28.160Z,4.13
2023-01-09T22:13:16.986Z,3.33
2023-01-09T22:15:46.248Z,3.20
2023-01-09T22:18:14.065Z,3.53
2023-01-09T22:20:41.631Z,3.53
2023-01-09T22:23:09.839Z,3.80
2023-01-09T22:25:38.450Z,3.55
2023-01-09T22:28:06.045Z,3.60
2023-01-09T22:30:33.504Z,3.72
2023-01-09T22:33:02.763Z,4.55
2023-01-09T22:35:33.677Z,4.20
2023-01-09T22:38:01.270Z,3.67
2023-01-09T22:40:28.644Z,3.70
2023-01-09T22:42:56.817Z,4.25
2023-01-09T22:45:24.529Z,3.28
2023-01-09T22:47:51.994Z,3.05
2023-01-09T22:50:19.985Z,3.42
2023-01-09T22:52:48.572Z,2.60
2023-01-09T22:55:16.026Z,2.65
2023-01-09T22:57:43.800Z,2.67
2023-01-09T23:00:12.544Z,2.72
2023-01-09T23:02:40.000Z,2.35
2023-01-09T23:05:07.675Z,2.60
2023-01-09T23:07:38.792Z,2.63
2023-01-09T23:10:07.016Z,2.83
2023-01-09T23:12:34.451Z,2.60
2023-01-09T23:15:02.691Z,2.53
2023-01-09T23:17:30.563Z,2.50
2023-01-09T23:19:57.975Z,2.40
2023-01-09T23:22:25.942Z,2.53
2023-01-09T23:24:53.325Z,2.10
2023-01-09T23:27:20.583Z,2.53
2023-01-09T23:29:48.260Z,2.60
2023-01-09T23:32:15.727Z,2.50
2023-01-09T23:34:43.069Z,2.05
2023-01-09T23:37:10.441Z,3.13
2023-01-09T23:39:38.154Z,2.78
2023-01-09T23:42:23.989Z,2.63
2023-01-09T23:44:51.508Z,4.40
2023-01-09T23:47:18.799Z,2.70
2023-01-09T23:49:46.149Z,2.38
2023-01-09T23:52:13.517Z,3.38
2023-01-09T23:54:40.797Z,2.97
2023-01-09T23:57:08.446Z,3.10
2023-01-09T23:59:35.858Z,3.10
